Time;durP1;ratioP1;P1;durP2;ratioP2;P2;SDS_P1;SDS_P2;PMS_P1;PMS_P2;Temp;Humidity;BMP_temperature;BMP_pressure;BME280_temperature;BME280_humidity;BME280_pressure;Samples;Min_cycle;Max_cycle;Signal;HPM_P1;HPM_P2
2023/03/09 00:03:15;;;;;;;1.35;0.90;;;;;;;;;;10573909;27;20064;-79
2023/03/09 00:08:18;;;;;;;1.55;0.80;;;;;;;;;;10563473;28;20059;-80
2023/03/09 00:13:23;;;;;;;0.93;0.67;;;;;;;;;;10560054;27;20033;-80
2023/03/09 00:18:26;;;;;;;1.67;0.80;;;;;;;;;;10573407;28;20032;-82
2023/03/09 00:23:29;;;;;;;1.08;0.60;;;;;;;;;;10573700;28;20039;-80
2023/03/09 00:28:43;;;;;;;0.95;0.60;;;;;;;;;;10567567;27;20040;-79
2023/03/09 00:33:55;;;;;;;;;;;;;;;;;;10568562;27;20077;-79
2023/03/09 00:38:59;;;;;;;1.60;0.90;;;;;;;;;;10530154;28;19928;-78
2023/03/09 00:44:04;;;;;;;0.63;0.35;;;;;;;;;;10544574;28;20397;-79
2023/03/09 00:49:07;;;;;;;1.05;0.47;;;;;;;;;;10547170;27;20582;-80
2023/03/09 00:54:11;;;;;;;0.77;0.70;;;;;;;;;;10555051;28;20039;-78
2023/03/09 00:59:16;;;;;;;1.83;0.70;;;;;;;;;;10539694;27;20055;-79
2023/03/09 01:04:19;;;;;;;0.40;0.32;;;;;;;;;;10540121;28;20143;-79
2023/03/09 01:09:23;;;;;;;0.63;0.35;;;;;;;;;;10534635;27;20561;-80
2023/03/09 01:14:28;;;;;;;0.90;0.47;;;;;;;;;;10552221;27;20043;-79
2023/03/09 01:19:45;;;;;;;1.73;0.60;;;;;;;;;;10552351;27;20123;-78
2023/03/09 01:24:49;;;;;;;0.50;0.40;;;;;;;;;;10556465;27;20043;-78
2023/03/09 01:29:53;;;;;;;0.63;0.43;;;;;;;;;;10548197;27;20122;-79
2023/03/09 01:34:56;;;;;;;8.57;0.35;;;;;;;;;;10548928;27;20486;-77
2023/03/09 01:39:59;;;;;;;0.45;0.22;;;;;;;;;;10552322;28;20255;-78
2023/03/09 01:45:24;;;;;;;0.30;0.30;;;;;;;;;;10560625;27;20042;-78
2023/03/09 01:50:30;;;;;;;0.25;0.15;;;;;;;;;;10550542;27;20112;-78
2023/03/09 01:55:37;;;;;;;0.20;0.20;;;;;;;;;;10564267;27;20035;-77
2023/03/09 02:00:44;;;;;;;0.57;0.20;;;;;;;;;;10573929;27;20059;-79
2023/03/09 02:05:50;;;;;;;2.30;0.30;;;;;;;;;;10552085;28;20035;-78
2023/03/09 02:10:56;;;;;;;0.73;0.28;;;;;;;;;;10546798;28;20050;-80
2023/03/09 02:15:59;;;;;;;0.05;0.00;;;;;;;;;;10549981;28;20045;-79
2023/03/09 02:21:06;;;;;;;0.20;0.13;;;;;;;;;;10542075;28;20144;-80
2023/03/09 02:26:12;;;;;;;0.20;0.20;;;;;;;;;;10548688;27;20039;-82
2023/03/09 02:31:17;;;;;;;0.55;0.17;;;;;;;;;;10551478;28;20069;-81
2023/03/09 02:36:21;;;;;;;0.95;0.20;;;;;;;;;;10545616;27;20127;-80
2023/03/09 02:41:25;;;;;;;0.20;0.20;;;;;;;;;;10549637;28;20089;-78
2023/03/09 02:46:29;;;;;;;0.30;0.25;;;;;;;;;;10545284;28;20044;-78
2023/03/09 02:51:33;;;;;;;0.13;0.13;;;;;;;;;;10552609;27;20044;-78
2023/03/09 02:56:36;;;;;;;0.38;0.30;;;;;;;;;;10544532;28;20043;-76
2023/03/09 03:01:39;;;;;;;;;;;;;;;;;;10549195;28;20051;-78
2023/03/09 03:06:43;;;;;;;1.33;0.43;;;;;;;;;;10549381;27;19924;-79
2023/03/09 03:11:47;;;;;;;1.13;0.38;;;;;;;;;;10551875;28;20040;-78
2023/03/09 03:16:50;;;;;;;1.50;0.30;;;;;;;;;;10553659;28;20066;-78
2023/03/09 03:21:55;;;;;;;1.15;0.60;;;;;;;;;;10553236;28;20043;-77
2023/03/09 03:26:58;;;;;;;0.73;0.30;;;;;;;;;;10563236;27;20112;-79
2023/03/09 03:32:02;;;;;;;0.32;0.17;;;;;;;;;;10559108;27;20535;-78
2023/03/09 03:37:07;;;;;;;0.10;0.10;;;;;;;;;;10562518;27;20078;-77
2023/03/09 03:42:11;;;;;;;0.75;0.35;;;;;;;;;;10555132;28;20050;-78
2023/03/09 03:47:15;;;;;;;0.30;0.25;;;;;;;;;;10562628;27;20094;-79
2023/03/09 03:52:20;;;;;;;1.45;0.40;;;;;;;;;;10560698;27;20150;-77
2023/03/09 03:57:23;;;;;;;1.88;0.40;;;;;;;;;;10563732;28;20059;-78
2023/03/09 04:02:26;;;;;;;1.70;0.50;;;;;;;;;;10570586;28;20071;-78
2023/03/09 04:07:30;;;;;;;0.30;0.17;;;;;;;;;;10580574;27;20109;-78
2023/03/09 04:12:33;;;;;;;0.68;0.60;;;;;;;;;;10588926;27;20070;-78
2023/03/09 04:17:35;;;;;;;1.77;0.50;;;;;;;;;;10574114;27;20312;-77
2023/03/09 04:22:41;;;;;;;1.05;0.60;;;;;;;;;;10560754;27;20090;-80
2023/03/09 04:27:46;;;;;;;0.28;0.28;;;;;;;;;;10555689;27;20047;-80
2023/03/09 04:32:49;;;;;;;0.10;0.10;;;;;;;;;;10547707;27;20032;-78
2023/03/09 04:37:55;;;;;;;0.32;0.32;;;;;;;;;;10559558;27;20036;-78
2023/03/09 04:42:59;;;;;;;1.52;0.60;;;;;;;;;;10553265;28;20496;-78
2023/03/09 04:48:02;;;;;;;0.95;0.40;;;;;;;;;;10558343;27;20043;-78
2023/03/09 04:53:06;;;;;;;1.08;0.43;;;;;;;;;;10556966;27;20581;-78
2023/03/09 04:58:09;;;;;;;2.05;0.47;;;;;;;;;;10553572;27;20385;-78
2023/03/09 05:03:14;;;;;;;1.08;0.50;;;;;;;;;;10553818;28;20126;-79
2023/03/09 05:08:18;;;;;;;2.38;0.50;;;;;;;;;;10532906;28;20032;-78
2023/03/09 05:13:20;;;;;;;0.73;0.32;;;;;;;;;;10561526;27;20083;-78
2023/03/09 05:18:23;;;;;;;0.25;0.22;;;;;;;;;;10544403;27;20129;-77
2023/03/09 05:23:28;;;;;;;1.67;0.65;;;;;;;;;;10549222;28;20040;-78
2023/03/09 05:28:33;;;;;;;0.15;0.13;;;;;;;;;;10528858;28;20110;-77
2023/03/09 05:33:36;;;;;;;4.23;0.97;;;;;;;;;;10549122;28;20051;-77
2023/03/09 05:38:41;;;;;;;0.20;0.20;;;;;;;;;;10551167;27;20454;-77
2023/03/09 05:43:45;;;;;;;0.40;0.40;;;;;;;;;;10550026;28;20036;-77
2023/03/09 05:48:49;;;;;;;1.00;0.43;;;;;;;;;;10550618;27;20108;-77
2023/03/09 05:53:54;;;;;;;0.38;0.20;;;;;;;;;;10545629;28;20423;-77
2023/03/09 05:59:01;;;;;;;2.83;0.30;;;;;;;;;;10544701;27;20465;-80
2023/03/09 06:04:05;;;;;;;1.27;0.38;;;;;;;;;;10546083;27;20040;-77
2023/03/09 06:09:08;;;;;;;0.95;0.35;;;;;;;;;;10550747;28;20039;-79
2023/03/09 06:14:12;;;;;;;1.60;0.30;;;;;;;;;;10549275;28;20143;-80
2023/03/09 06:19:18;;;;;;;1.65;0.20;;;;;;;;;;10547103;27;20361;-81
2023/03/09 06:24:23;;;;;;;1.48;0.32;;;;;;;;;;10544785;28;20043;-78
2023/03/09 06:29:27;;;;;;;0.90;0.20;;;;;;;;;;10544532;28;20051;-79
2023/03/09 06:34:29;;;;;;;0.57;0.30;;;;;;;;;;10551752;28;20493;-79
2023/03/09 06:39:33;;;;;;;0.10;0.10;;;;;;;;;;10553951;27;20089;-79
2023/03/09 06:44:37;;;;;;;0.30;0.20;;;;;;;;;;10551886;27;20036;-78
2023/03/09 06:49:40;;;;;;;0.10;0.10;;;;;;;;;;10543514;28;20040;-77
2023/03/09 06:54:44;;;;;;;0.15;0.15;;;;;;;;;;10543493;28;20040;-77
2023/03/09 06:59:46;;;;;;;0.32;0.20;;;;;;;;;;10544996;28;20412;-77
2023/03/09 07:04:49;;;;;;;0.63;0.20;;;;;;;;;;10548845;28;20035;-76
2023/03/09 07:09:54;;;;;;;0.90;0.40;;;;;;;;;;10540667;28;20123;-80
2023/03/09 07:14:56;;;;;;;0.73;0.38;;;;;;;;;;10545067;28;20046;-77
2023/03/09 07:19:59;;;;;;;1.95;0.50;;;;;;;;;;10534300;28;20048;-76
2023/03/09 07:25:04;;;;;;;3.30;0.27;;;;;;;;;;10541597;28;20067;-76
2023/03/09 07:30:07;;;;;;;1.95;0.50;;;;;;;;;;10538229;28;20039;-76
2023/03/09 07:35:10;;;;;;;0.40;0.40;;;;;;;;;;10544227;28;20450;-77
2023/03/09 07:40:15;;;;;;;1.30;0.30;;;;;;;;;;10552467;28;20502;-77
2023/03/09 07:45:18;;;;;;;2.28;0.55;;;;;;;;;;10547798;28;20042;-78
2023/03/09 07:50:21;;;;;;;1.08;0.85;;;;;;;;;;10552878;28;20452;-77
2023/03/09 07:55:26;;;;;;;0.68;0.68;;;;;;;;;;10558625;27;20043;-77
2023/03/09 08:00:30;;;;;;;0.75;0.70;;;;;;;;;;10542119;27;20052;-78
2023/03/09 08:05:33;;;;;;;0.52;0.52;;;;;;;;;;10555091;27;20476;-77
2023/03/09 08:10:37;;;;;;;0.90;0.50;;;;;;;;;;10553555;27;20051;-77
2023/03/09 08:15:40;;;;;;;1.45;0.30;;;;;;;;;;10544962;27;20044;-77
2023/03/09 08:20:44;;;;;;;1.75;0.40;;;;;;;;;;10553121;27;20163;-77
2023/03/09 08:25:54;;;;;;;4.27;0.60;;;;;;;;;;10542289;27;20039;-78
2023/03/09 08:30:57;;;;;;;1.10;0.70;;;;;;;;;;10553473;27;20440;-77
2023/03/09 08:36:00;;;;;;;;;;;;;;;;;;10553395;27;20510;-76
2023/03/09 08:41:05;;;;;;;1.85;0.73;;;;;;;;;;10534267;28;20246;-77
2023/03/09 08:46:08;;;;;;;0.98;0.60;;;;;;;;;;10554485;27;20040;-77
2023/03/09 08:51:12;;;;;;;0.52;0.50;;;;;;;;;;10560540;27;20131;-77
2023/03/09 08:56:16;;;;;;;1.30;1.20;;;;;;;;;;10568067;27;20039;-78
2023/03/09 09:01:20;;;;;;;2.13;1.02;;;;;;;;;;10548903;27;20066;-78
2023/03/09 09:06:23;;;;;;;1.55;0.88;;;;;;;;;;10547794;27;20115;-78
2023/03/09 09:11:27;;;;;;;0.95;0.60;;;;;;;;;;10555720;27;20066;-78
2023/03/09 09:16:30;;;;;;;4.32;1.00;;;;;;;;;;10555578;28;20044;-78
2023/03/09 09:21:33;;;;;;;0.70;0.70;;;;;;;;;;10551032;28;20632;-78
2023/03/09 09:26:37;;;;;;;0.98;0.35;;;;;;;;;;10553325;27;20043;-77
2023/03/09 09:31:40;;;;;;;0.80;0.50;;;;;;;;;;10550631;27;20052;-78
2023/03/09 09:36:44;;;;;;;4.15;0.63;;;;;;;;;;10552221;27;20040;-78
2023/03/09 09:41:49;;;;;;;3.30;1.10;;;;;;;;;;10541843;28;20589;-77
2023/03/09 09:46:53;;;;;;;2.88;0.88;;;;;;;;;;10536418;28;20145;-77
2023/03/09 09:52:03;;;;;;;3.85;0.70;;;;;;;;;;10546744;28;20063;-76
2023/03/09 09:57:14;;;;;;;5.10;1.35;;;;;;;;;;10556840;27;20104;-76
2023/03/09 10:02:32;;;;;;;3.45;1.10;;;;;;;;;;10548711;28;20042;-78
2023/03/09 10:07:37;;;;;;;1.67;0.70;;;;;;;;;;10548168;28;20126;-78
2023/03/09 10:12:41;;;;;;;2.28;0.63;;;;;;;;;;10556734;27;20039;-79
2023/03/09 10:17:46;;;;;;;3.20;0.77;;;;;;;;;;10546644;27;20039;-78
2023/03/09 10:22:51;;;;;;;2.10;0.43;;;;;;;;;;10554649;27;20131;-78
2023/03/09 10:28:00;;;;;;;0.82;0.40;;;;;;;;;;10555109;27;20408;-79
2023/03/09 10:33:06;;;;;;;2.28;0.70;;;;;;;;;;10551020;27;20058;-78
2023/03/09 10:38:12;;;;;;;1.10;0.57;;;;;;;;;;10542206;28;20563;-78
2023/03/09 10:43:22;;;;;;;2.00;0.60;;;;;;;;;;10543324;27;20046;-78
2023/03/09 10:48:25;;;;;;;2.28;0.60;;;;;;;;;;10560071;27;20104;-77
2023/03/09 10:53:35;;;;;;;2.15;0.40;;;;;;;;;;10538008;28;20092;-78
2023/03/09 10:58:39;;;;;;;0.38;0.38;;;;;;;;;;10549278;28;20040;-78
2023/03/09 11:03:43;;;;;;;1.67;0.60;;;;;;;;;;10544096;28;20089;-78
2023/03/09 11:08:54;;;;;;;3.33;0.90;;;;;;;;;;10555149;28;20418;-78
2023/03/09 11:14:29;;;;;;;3.35;1.33;;;;;;;;;;10547380;28;20056;-78
2023/03/09 11:19:31;;;;;;;1.52;0.80;;;;;;;;;;10549872;28;20128;-77
2023/03/09 11:24:38;;;;;;;2.15;0.68;;;;;;;;;;10555462;28;20065;-77
2023/03/09 11:29:48;;;;;;;3.80;0.98;;;;;;;;;;10540196;27;20065;-77
2023/03/09 11:34:52;;;;;;;1.70;0.47;;;;;;;;;;10557855;28;20044;-78
2023/03/09 11:39:57;;;;;;;2.30;0.60;;;;;;;;;;10546126;27;20036;-77
2023/03/09 11:45:14;;;;;;;2.30;0.85;;;;;;;;;;10557779;28;20051;-77
2023/03/09 11:50:28;;;;;;;4.43;1.60;;;;;;;;;;10551303;27;20031;-78
2023/03/09 11:55:35;;;;;;;2.17;1.30;;;;;;;;;;10549555;28;20068;-79
2023/03/09 12:00:43;;;;;;;1.42;1.25;;;;;;;;;;10571145;27;20061;-77
2023/03/09 12:05:50;;;;;;;4.82;1.52;;;;;;;;;;10543384;28;20039;-77
2023/03/09 12:10:56;;;;;;;1.77;1.10;;;;;;;;;;10563156;28;20043;-78
2023/03/09 12:16:03;;;;;;;0.90;0.77;;;;;;;;;;10558718;28;20039;-77
2023/03/09 12:21:08;;;;;;;2.33;1.40;;;;;;;;;;10560417;27;20044;-78
2023/03/09 12:26:21;;;;;;;3.25;1.30;;;;;;;;;;10542873;28;20039;-78
2023/03/09 12:31:32;;;;;;;2.45;0.90;;;;;;;;;;10525780;27;20040;-77
2023/03/09 12:36:36;;;;;;;2.33;1.27;;;;;;;;;;10536028;28;20047;-78
2023/03/09 12:41:54;;;;;;;3.67;1.50;;;;;;;;;;10550033;27;20083;-79
2023/03/09 12:47:02;;;;;;;2.63;1.42;;;;;;;;;;10565523;28;20218;-78
2023/03/09 12:52:19;;;;;;;2.38;1.40;;;;;;;;;;10559732;27;20646;-79
2023/03/09 12:57:23;;;;;;;2.85;1.25;;;;;;;;;;10543223;28;20051;-78
2023/03/09 13:02:33;;;;;;;3.03;0.63;;;;;;;;;;10560984;27;20040;-78
2023/03/09 13:07:37;;;;;;;4.00;1.20;;;;;;;;;;10559538;27;20032;-78
2023/03/09 13:12:39;;;;;;;2.15;1.20;;;;;;;;;;10543371;27;20105;-79
2023/03/09 13:17:44;;;;;;;2.22;1.30;;;;;;;;;;10538993;28;20097;-78
2023/03/09 13:22:47;;;;;;;1.77;0.90;;;;;;;;;;10560785;28;20047;-78
2023/03/09 13:28:13;;;;;;;2.00;1.27;;;;;;;;;;10548915;27;20036;-79
2023/03/09 13:33:22;;;;;;;2.58;1.25;;;;;;;;;;10540204;27;20137;-79
2023/03/09 13:38:27;;;;;;;2.95;1.00;;;;;;;;;;10542233;28;20096;-79
2023/03/09 13:43:31;;;;;;;6.35;1.77;;;;;;;;;;10540739;27;20070;-80
2023/03/09 13:48:36;;;;;;;1.85;1.10;;;;;;;;;;10542798;27;20485;-79
2023/03/09 13:53:44;;;;;;;2.38;1.20;;;;;;;;;;10538920;28;20052;-80
2023/03/09 13:58:49;;;;;;;1.27;0.60;;;;;;;;;;10543710;28;20036;-79
2023/03/09 14:03:54;;;;;;;1.20;0.90;;;;;;;;;;10541172;27;20044;-78
2023/03/09 14:09:05;;;;;;;0.55;0.50;;;;;;;;;;10541018;27;20590;-78
2023/03/09 14:14:09;;;;;;;0.82;0.50;;;;;;;;;;10554232;27;20119;-78
2023/03/09 14:19:21;;;;;;;1.92;0.68;;;;;;;;;;10543689;27;20485;-78
2023/03/09 14:24:26;;;;;;;0.70;0.30;;;;;;;;;;10523445;27;20039;-78
2023/03/09 14:29:30;;;;;;;2.60;0.50;;;;;;;;;;10547224;27;20053;-79
2023/03/09 14:34:35;;;;;;;2.67;0.73;;;;;;;;;;10549312;27;20032;-79
2023/03/09 14:39:39;;;;;;;1.83;0.60;;;;;;;;;;10543331;28;20072;-79
2023/03/09 14:44:42;;;;;;;2.20;0.68;;;;;;;;;;10535479;28;20055;-80
2023/03/09 14:49:48;;;;;;;1.00;0.93;;;;;;;;;;10552561;27;20112;-78
2023/03/09 14:54:51;;;;;;;1.58;0.50;;;;;;;;;;10546045;27;20036;-79
2023/03/09 14:59:54;;;;;;;1.63;0.70;;;;;;;;;;10548348;28;20055;-78
2023/03/09 15:04:58;;;;;;;0.93;0.40;;;;;;;;;;10539540;28;20052;-78
2023/03/09 15:10:02;;;;;;;1.42;0.60;;;;;;;;;;10544374;28;20063;-78
2023/03/09 15:15:12;;;;;;;1.20;0.40;;;;;;;;;;10542108;28;20042;-78
2023/03/09 15:20:17;;;;;;;0.80;0.47;;;;;;;;;;10547373;28;20050;-78
2023/03/09 15:25:23;;;;;;;2.00;0.50;;;;;;;;;;10536736;28;20127;-78
2023/03/09 15:30:32;;;;;;;3.60;0.70;;;;;;;;;;10548713;28;20330;-78
2023/03/09 15:35:40;;;;;;;2.53;1.00;;;;;;;;;;10555718;28;20052;-79
2023/03/09 15:40:43;;;;;;;1.23;0.50;;;;;;;;;;10555629;28;20040;-79
2023/03/09 15:45:46;;;;;;;1.45;0.45;;;;;;;;;;10569211;28;20376;-78
2023/03/09 15:50:52;;;;;;;2.60;0.73;;;;;;;;;;10543181;28;20032;-78
2023/03/09 15:55:58;;;;;;;1.27;0.65;;;;;;;;;;10560501;28;20043;-78
2023/03/09 16:01:01;;;;;;;2.97;0.80;;;;;;;;;;10541984;28;20299;-78
2023/03/09 16:06:07;;;;;;;3.10;0.98;;;;;;;;;;10537221;28;20040;-79
2023/03/09 16:11:10;;;;;;;0.93;0.57;;;;;;;;;;10561168;27;20044;-79
2023/03/09 16:16:14;;;;;;;2.80;1.00;;;;;;;;;;10571894;27;20069;-79
2023/03/09 16:21:18;;;;;;;2.33;0.60;;;;;;;;;;10568189;27;20038;-78
2023/03/09 16:26:22;;;;;;;2.92;0.77;;;;;;;;;;10565843;27;20489;-78
2023/03/09 16:31:28;;;;;;;2.80;0.77;;;;;;;;;;10566830;27;20097;-78
2023/03/09 16:36:32;;;;;;;1.67;0.68;;;;;;;;;;10550651;27;20049;-78
2023/03/09 16:41:35;;;;;;;2.97;0.95;;;;;;;;;;10553244;28;20538;-79
2023/03/09 16:46:37;;;;;;;1.88;0.80;;;;;;;;;;10559800;27;20058;-77
2023/03/09 16:51:41;;;;;;;2.80;0.60;;;;;;;;;;10564444;27;20040;-78
2023/03/09 16:56:46;;;;;;;2.28;0.60;;;;;;;;;;10567019;27;20040;-78
2023/03/09 17:01:49;;;;;;;3.05;0.77;;;;;;;;;;10545826;27;20105;-78
2023/03/09 17:06:53;;;;;;;1.90;0.50;;;;;;;;;;10560129;28;20071;-80
2023/03/09 17:11:57;;;;;;;3.88;0.63;;;;;;;;;;10549848;28;20031;-79
2023/03/09 17:17:00;;;;;;;4.85;1.10;;;;;;;;;;10546584;27;20036;-78
2023/03/09 17:22:05;;;;;;;3.50;0.30;;;;;;;;;;10552350;28;20362;-79
2023/03/09 17:27:08;;;;;;;0.52;0.30;;;;;;;;;;10553684;27;20496;-79
2023/03/09 17:32:11;;;;;;;1.98;0.75;;;;;;;;;;10550964;27;20032;-79
2023/03/09 17:37:16;;;;;;;1.83;0.73;;;;;;;;;;10547679;27;20101;-78
2023/03/09 17:42:18;;;;;;;;;;;;;;;;;;10551483;27;20434;-77
2023/03/09 17:47:22;;;;;;;1.95;0.50;;;;;;;;;;10550129;27;19988;-76
2023/03/09 17:52:27;;;;;;;1.03;0.53;;;;;;;;;;10546336;27;20028;-76
2023/03/09 17:57:30;;;;;;;2.55;0.85;;;;;;;;;;10563041;27;20325;-77
2023/03/09 18:02:34;;;;;;;2.17;0.80;;;;;;;;;;10559171;28;20134;-78
2023/03/09 18:07:38;;;;;;;2.42;0.68;;;;;;;;;;10568542;27;20073;-76
2023/03/09 18:12:42;;;;;;;2.05;1.05;;;;;;;;;;10555540;27;20415;-78
2023/03/09 18:17:46;;;;;;;1.73;0.73;;;;;;;;;;10555962;28;20116;-79
2023/03/09 18:22:51;;;;;;;1.85;0.77;;;;;;;;;;10562060;27;20501;-77
2023/03/09 18:27:54;;;;;;;5.18;1.58;;;;;;;;;;10557193;27;20043;-77
2023/03/09 18:32:58;;;;;;;2.05;0.90;;;;;;;;;;10546987;28;20062;-78
2023/03/09 18:38:02;;;;;;;3.33;1.07;;;;;;;;;;10558590;28;20085;-78
2023/03/09 18:43:04;;;;;;;4.57;1.20;;;;;;;;;;10544320;27;20078;-77
2023/03/09 18:48:11;;;;;;;5.95;1.30;;;;;;;;;;10540444;28;20155;-76
2023/03/09 18:53:15;;;;;;;4.63;2.03;;;;;;;;;;10544172;27;20043;-75
2023/03/09 18:58:19;;;;;;;4.38;1.10;;;;;;;;;;10556363;28;20043;-74
2023/03/09 19:03:22;;;;;;;6.78;1.90;;;;;;;;;;10573451;28;20089;-77
2023/03/09 19:08:26;;;;;;;6.28;1.70;;;;;;;;;;10554260;28;20032;-75
2023/03/09 19:13:29;;;;;;;7.57;2.25;;;;;;;;;;10558903;28;21330;-75
2023/03/09 19:18:46;;;;;;;7.95;2.40;;;;;;;;;;10567780;28;20131;-75
2023/03/09 19:23:53;;;;;;;6.57;2.10;;;;;;;;;;10553045;28;20039;-76
2023/03/09 19:28:57;;;;;;;4.95;2.10;;;;;;;;;;10545623;28;20058;-75
2023/03/09 19:34:00;;;;;;;2.90;1.63;;;;;;;;;;10557508;28;20043;-76
2023/03/09 19:39:05;;;;;;;6.22;2.00;;;;;;;;;;10548912;28;20089;-75
2023/03/09 19:44:08;;;;;;;7.47;1.52;;;;;;;;;;10562255;27;20039;-75
2023/03/09 19:49:11;;;;;;;8.05;1.80;;;;;;;;;;10568959;27;20033;-76
2023/03/09 19:54:15;;;;;;;1.65;1.15;;;;;;;;;;10548350;27;20176;-77
2023/03/09 19:59:19;;;;;;;6.45;2.03;;;;;;;;;;10568045;27;20036;-75
2023/03/09 20:04:23;;;;;;;10.93;2.58;;;;;;;;;;10556766;28;20035;-74
2023/03/09 20:09:29;;;;;;;14.80;4.57;;;;;;;;;;10575624;27;20036;-75
2023/03/09 20:14:31;;;;;;;15.05;6.07;;;;;;;;;;10578071;27;20096;-74
2023/03/09 20:19:37;;;;;;;15.32;5.18;;;;;;;;;;10572032;28;20074;-75
2023/03/09 20:24:40;;;;;;;;;;;;;;;;;;10569922;27;20036;-76
2023/03/09 20:29:45;;;;;;;5.45;1.90;;;;;;;;;;10567528;27;19962;-77
2023/03/09 20:34:58;;;;;;;4.50;1.58;;;;;;;;;;10568634;28;20047;-78
2023/03/09 20:40:12;;;;;;;4.63;1.83;;;;;;;;;;10564294;27;20036;-78
2023/03/09 20:45:27;;;;;;;2.07;1.07;;;;;;;;;;10567387;27;20043;-78
2023/03/09 20:50:31;;;;;;;4.13;1.33;;;;;;;;;;10553376;28;20061;-79
2023/03/09 20:55:35;;;;;;;4.95;1.70;;;;;;;;;;10565594;27;20066;-78
2023/03/09 21:00:39;;;;;;;8.02;1.63;;;;;;;;;;10568103;28;20127;-79
2023/03/09 21:05:44;;;;;;;5.43;2.10;;;;;;;;;;10559767;28;20139;-77
2023/03/09 21:10:49;;;;;;;3.70;1.90;;;;;;;;;;10574956;27;20389;-77
2023/03/09 21:15:54;;;;;;;6.88;1.52;;;;;;;;;;10553175;27;20047;-77
2023/03/09 21:20:58;;;;;;;5.93;1.42;;;;;;;;;;10557451;27;20520;-77
2023/03/09 21:26:04;;;;;;;4.00;1.80;;;;;;;;;;10555338;27;20044;-77
2023/03/09 21:31:15;;;;;;;2.15;1.25;;;;;;;;;;10566092;27;20032;-77
2023/03/09 21:36:26;;;;;;;3.75;1.20;;;;;;;;;;10560487;28;20047;-78
2023/03/09 21:41:29;;;;;;;3.03;0.95;;;;;;;;;;10568439;27;20032;-78
2023/03/09 21:46:35;;;;;;;5.97;1.60;;;;;;;;;;10563418;27;20055;-78
2023/03/09 21:51:38;;;;;;;5.10;1.55;;;;;;;;;;10549318;28;20322;-77
2023/03/09 21:56:41;;;;;;;3.42;1.60;;;;;;;;;;10518736;28;20077;-78
2023/03/09 22:01:46;;;;;;;3.42;1.48;;;;;;;;;;10551675;27;20043;-78
2023/03/09 22:06:53;;;;;;;4.95;1.80;;;;;;;;;;10540315;28;20043;-78
2023/03/09 22:11:56;;;;;;;2.92;1.17;;;;;;;;;;10552147;27;20343;-78
2023/03/09 22:17:00;;;;;;;2.83;1.17;;;;;;;;;;10545366;28;20042;-77
2023/03/09 22:22:03;;;;;;;4.38;1.20;;;;;;;;;;10557403;27;20585;-78
2023/03/09 22:27:05;;;;;;;4.70;1.95;;;;;;;;;;10557187;27;20043;-77
2023/03/09 22:32:10;;;;;;;4.40;1.48;;;;;;;;;;10555316;28;20043;-76
2023/03/09 22:37:13;;;;;;;2.85;1.45;;;;;;;;;;10566461;27;20089;-77
2023/03/09 22:42:17;;;;;;;5.60;1.60;;;;;;;;;;10547661;27;20658;-77
2023/03/09 22:47:22;;;;;;;5.00;1.52;;;;;;;;;;10563830;28;20377;-77
2023/03/09 22:52:25;;;;;;;2.47;0.93;;;;;;;;;;10564552;28;20039;-75
2023/03/09 22:57:31;;;;;;;4.80;1.70;;;;;;;;;;10563589;28;20035;-74
2023/03/09 23:02:36;;;;;;;4.85;1.52;;;;;;;;;;10563624;28;20048;-76
2023/03/09 23:07:39;;;;;;;5.18;1.48;;;;;;;;;;10559576;28;20066;-74
2023/03/09 23:12:42;;;;;;;8.90;2.53;;;;;;;;;;10573156;28;20462;-75
2023/03/09 23:17:46;;;;;;;5.78;1.25;;;;;;;;;;10564538;28;20055;-75
2023/03/09 23:22:48;;;;;;;2.85;1.33;;;;;;;;;;10565187;27;20058;-76
2023/03/09 23:27:51;;;;;;;1.25;0.60;;;;;;;;;;10561924;27;20040;-76
2023/03/09 23:32:58;;;;;;;3.83;1.02;;;;;;;;;;10565440;27;20123;-76
2023/03/09 23:38:01;;;;;;;3.42;1.30;;;;;;;;;;10562332;28;20044;-77
2023/03/09 23:43:04;;;;;;;3.60;1.23;;;;;;;;;;10560219;28;20126;-78
2023/03/09 23:48:10;;;;;;;3.33;1.40;;;;;;;;;;10555078;27;20044;-76
2023/03/09 23:53:13;;;;;;;3.25;1.10;;;;;;;;;;10557320;28;20031;-76
2023/03/09 23:58:16;;;;;;;2.25;1.25;;;;;;;;;;10556977;27;20496;-77
